sensor_id;sensor_type;location;lat;lon;timestamp;P1;durP1;ratioP1;P2;durP2;ratioP2
15921;SDS011;8060;50.948;3.146;2022-12-18T08:09:46;30.77;;;13.93;;
15921;SDS011;8060;50.948;3.146;2022-12-18T08:12:14;28.60;;;14.40;;
15921;SDS011;8060;50.948;3.146;2022-12-18T08:14:42;28.37;;;14.33;;
15921;SDS011;8060;50.948;3.146;2022-12-18T08:17:11;32.97;;;15.07;;
15921;SDS011;8060;50.948;3.146;2022-12-18T08:19:39;36.23;;;15.77;;
15921;SDS011;8060;50.948;3.146;2022-12-18T08:22:07;35.43;;;15.90;;
15921;SDS011;8060;50.948;3.146;2022-12-18T08:24:35;32.13;;;14.70;;
15921;SDS011;8060;50.948;3.146;2022-12-18T08:27:05;32.23;;;15.80;;
15921;SDS011;8060;50.948;3.146;2022-12-18T08:29:53;32.10;;;15.57;;
15921;SDS011;8060;50.948;3.146;2022-12-18T08:32:21;31.53;;;15.37;;
15921;SDS011;8060;50.948;3.146;2022-12-18T08:34:49;32.13;;;15.30;;
15921;SDS011;8060;50.948;3.146;2022-12-18T08:37:17;31.83;;;15.50;;
15921;SDS011;8060;50.948;3.146;2022-12-18T08:39:46;29.73;;;15.20;;
15921;SDS011;8060;50.948;3.146;2022-12-18T08:42:15;31.67;;;15.87;;
15921;SDS011;8060;50.948;3.146;2022-12-18T08:45:01;34.23;;;15.93;;
15921;SDS011;8060;50.948;3.146;2022-12-18T08:47:29;31.60;;;15.33;;
15921;SDS011;8060;50.948;3.146;2022-12-18T08:49:57;37.00;;;17.53;;
15921;SDS011;8060;50.948;3.146;2022-12-18T08:52:25;34.90;;;17.33;;
15921;SDS011;8060;50.948;3.146;2022-12-18T08:54:54;32.57;;;16.73;;
15921;SDS011;8060;50.948;3.146;2022-12-18T08:57:23;33.37;;;17.23;;
15921;SDS011;8060;50.948;3.146;2022-12-18T08:59:52;33.20;;;16.30;;
15921;SDS011;8060;50.948;3.146;2022-12-18T09:02:20;28.90;;;15.70;;
15921;SDS011;8060;50.948;3.146;2022-12-18T09:04:48;33.00;;;15.37;;
15921;SDS011;8060;50.948;3.146;2022-12-18T09:07:22;34.70;;;15.73;;
15921;SDS011;8060;50.948;3.146;2022-12-18T09:09:51;32.80;;;15.90;;
15921;SDS011;8060;50.948;3.146;2022-12-18T09:12:20;29.33;;;15.37;;
15921;SDS011;8060;50.948;3.146;2022-12-18T09:14:49;32.90;;;16.20;;
15921;SDS011;8060;50.948;3.146;2022-12-18T09:17:17;35.33;;;16.77;;
15921;SDS011;8060;50.948;3.146;2022-12-18T09:19:48;31.00;;;16.13;;
15921;SDS011;8060;50.948;3.146;2022-12-18T09:22:16;29.50;;;15.67;;
15921;SDS011;8060;50.948;3.146;2022-12-18T09:24:44;33.87;;;17.90;;
15921;SDS011;8060;50.948;3.146;2022-12-18T09:27:12;31.27;;;17.37;;
15921;SDS011;8060;50.948;3.146;2022-12-18T09:29:40;33.93;;;16.57;;
15921;SDS011;8060;50.948;3.146;2022-12-18T09:32:10;33.40;;;18.03;;
15921;SDS011;8060;50.948;3.146;2022-12-18T09:34:44;30.80;;;16.63;;
15921;SDS011;8060;50.948;3.146;2022-12-18T09:37:12;35.43;;;18.13;;
15921;SDS011;8060;50.948;3.146;2022-12-18T09:39:40;34.20;;;17.43;;
15921;SDS011;8060;50.948;3.146;2022-12-18T09:42:09;30.87;;;16.93;;
15921;SDS011;8060;50.948;3.146;2022-12-18T09:44:45;31.70;;;17.83;;
15921;SDS011;8060;50.948;3.146;2022-12-18T09:47:19;31.57;;;18.03;;
15921;SDS011;8060;50.948;3.146;2022-12-18T09:49:52;31.13;;;18.03;;
15921;SDS011;8060;50.948;3.146;2022-12-18T09:52:25;36.63;;;17.30;;
15921;SDS011;8060;50.948;3.146;2022-12-18T09:54:58;36.53;;;18.23;;
15921;SDS011;8060;50.948;3.146;2022-12-18T09:57:29;37.73;;;18.67;;
15921;SDS011;8060;50.948;3.146;2022-12-18T10:00:03;31.83;;;18.27;;
15921;SDS011;8060;50.948;3.146;2022-12-18T10:02:38;36.93;;;19.70;;
15921;SDS011;8060;50.948;3.146;2022-12-18T10:05:07;37.07;;;19.50;;
15921;SDS011;8060;50.948;3.146;2022-12-18T10:07:44;36.33;;;18.23;;
15921;SDS011;8060;50.948;3.146;2022-12-18T10:10:26;36.60;;;18.70;;
15921;SDS011;8060;50.948;3.146;2022-12-18T10:13:02;34.43;;;18.27;;
15921;SDS011;8060;50.948;3.146;2022-12-18T10:15:38;35.43;;;18.23;;
15921;SDS011;8060;50.948;3.146;2022-12-18T10:18:20;36.60;;;20.20;;
15921;SDS011;8060;50.948;3.146;2022-12-18T10:20:56;36.43;;;18.73;;
15921;SDS011;8060;50.948;3.146;2022-12-18T10:23:32;38.57;;;20.67;;
15921;SDS011;8060;50.948;3.146;2022-12-18T10:26:13;40.13;;;20.77;;
15921;SDS011;8060;50.948;3.146;2022-12-18T10:28:42;39.67;;;21.30;;
15921;SDS011;8060;50.948;3.146;2022-12-18T10:31:12;38.30;;;21.50;;
15921;SDS011;8060;50.948;3.146;2022-12-18T10:33:45;40.27;;;21.93;;
15921;SDS011;8060;50.948;3.146;2022-12-18T10:36:14;42.60;;;21.87;;
15921;SDS011;8060;50.948;3.146;2022-12-18T10:38:42;42.27;;;22.87;;
15921;SDS011;8060;50.948;3.146;2022-12-18T10:41:22;45.93;;;22.70;;
15921;SDS011;8060;50.948;3.146;2022-12-18T10:44:10;38.67;;;21.30;;
15921;SDS011;8060;50.948;3.146;2022-12-18T10:46:43;40.93;;;21.57;;
15921;SDS011;8060;50.948;3.146;2022-12-18T10:49:22;40.37;;;21.13;;
15921;SDS011;8060;50.948;3.146;2022-12-18T10:52:03;43.67;;;22.70;;
15921;SDS011;8060;50.948;3.146;2022-12-18T10:54:32;47.53;;;22.50;;
15921;SDS011;8060;50.948;3.146;2022-12-18T10:57:15;43.03;;;23.33;;
15921;SDS011;8060;50.948;3.146;2022-12-18T10:59:49;47.20;;;24.40;;
15921;SDS011;8060;50.948;3.146;2022-12-18T11:02:25;46.00;;;23.90;;
15921;SDS011;8060;50.948;3.146;2022-12-18T11:04:56;46.67;;;23.53;;
15921;SDS011;8060;50.948;3.146;2022-12-18T11:07:24;43.93;;;24.30;;
15921;SDS011;8060;50.948;3.146;2022-12-18T11:09:59;47.00;;;25.10;;
15921;SDS011;8060;50.948;3.146;2022-12-18T11:12:28;44.90;;;23.63;;
15921;SDS011;8060;50.948;3.146;2022-12-18T11:14:57;42.13;;;22.70;;
15921;SDS011;8060;50.948;3.146;2022-12-18T11:17:27;50.03;;;27.07;;
15921;SDS011;8060;50.948;3.146;2022-12-18T11:19:59;44.67;;;23.40;;
15921;SDS011;8060;50.948;3.146;2022-12-18T11:22:28;49.33;;;24.90;;
15921;SDS011;8060;50.948;3.146;2022-12-18T11:24:58;46.43;;;25.70;;
15921;SDS011;8060;50.948;3.146;2022-12-18T11:27:49;50.80;;;26.93;;
15921;SDS011;8060;50.948;3.146;2022-12-18T11:30:21;55.03;;;27.23;;
15921;SDS011;8060;50.948;3.146;2022-12-18T11:32:52;60.50;;;29.03;;
15921;SDS011;8060;50.948;3.146;2022-12-18T11:35:30;48.93;;;26.20;;
15921;SDS011;8060;50.948;3.146;2022-12-18T11:38:11;49.27;;;25.40;;
15921;SDS011;8060;50.948;3.146;2022-12-18T11:40:47;48.50;;;25.90;;
15921;SDS011;8060;50.948;3.146;2022-12-18T11:43:21;50.57;;;26.70;;
15921;SDS011;8060;50.948;3.146;2022-12-18T11:45:55;47.27;;;26.50;;
15921;SDS011;8060;50.948;3.146;2022-12-18T11:48:30;51.33;;;27.77;;
15921;SDS011;8060;50.948;3.146;2022-12-18T11:51:03;53.30;;;27.37;;
15921;SDS011;8060;50.948;3.146;2022-12-18T11:53:37;52.87;;;28.23;;
15921;SDS011;8060;50.948;3.146;2022-12-18T11:56:25;52.43;;;29.77;;
15921;SDS011;8060;50.948;3.146;2022-12-18T11:58:59;53.40;;;27.47;;
15921;SDS011;8060;50.948;3.146;2022-12-18T12:01:39;51.10;;;27.10;;
15921;SDS011;8060;50.948;3.146;2022-12-18T12:10:09;49.13;;;26.60;;
15921;SDS011;8060;50.948;3.146;2022-12-18T12:13:00;54.77;;;27.40;;
15921;SDS011;8060;50.948;3.146;2022-12-18T12:15:43;54.03;;;27.83;;
15921;SDS011;8060;50.948;3.146;2022-12-18T12:18:24;49.63;;;26.63;;
15921;SDS011;8060;50.948;3.146;2022-12-18T12:21:02;60.17;;;29.17;;
15921;SDS011;8060;50.948;3.146;2022-12-18T12:23:39;60.07;;;29.77;;
15921;SDS011;8060;50.948;3.146;2022-12-18T12:26:16;64.13;;;31.03;;
15921;SDS011;8060;50.948;3.146;2022-12-18T12:31:50;64.63;;;32.87;;
15921;SDS011;8060;50.948;3.146;2022-12-18T12:34:31;72.33;;;35.73;;
15921;SDS011;8060;50.948;3.146;2022-12-18T12:37:12;57.30;;;28.63;;
15921;SDS011;8060;50.948;3.146;2022-12-18T12:39:49;64.57;;;31.90;;
15921;SDS011;8060;50.948;3.146;2022-12-18T12:42:24;59.60;;;29.27;;
15921;SDS011;8060;50.948;3.146;2022-12-18T12:45:18;58.57;;;28.67;;
15921;SDS011;8060;50.948;3.146;2022-12-18T12:47:51;54.47;;;27.10;;
15921;SDS011;8060;50.948;3.146;2022-12-18T12:50:21;59.20;;;30.53;;
15921;SDS011;8060;50.948;3.146;2022-12-18T12:52:51;58.67;;;30.77;;
15921;SDS011;8060;50.948;3.146;2022-12-18T12:55:24;56.80;;;28.40;;
15921;SDS011;8060;50.948;3.146;2022-12-18T12:57:56;57.10;;;28.13;;
15921;SDS011;8060;50.948;3.146;2022-12-18T13:00:30;51.70;;;28.90;;
15921;SDS011;8060;50.948;3.146;2022-12-18T13:03:08;59.73;;;29.70;;
15921;SDS011;8060;50.948;3.146;2022-12-18T13:05:43;54.53;;;28.00;;
15921;SDS011;8060;50.948;3.146;2022-12-18T13:08:22;57.00;;;30.00;;
15921;SDS011;8060;50.948;3.146;2022-12-18T13:10:54;59.47;;;29.60;;
15921;SDS011;8060;50.948;3.146;2022-12-18T13:13:48;55.07;;;28.40;;
15921;SDS011;8060;50.948;3.146;2022-12-18T13:16:18;64.97;;;31.40;;
15921;SDS011;8060;50.948;3.146;2022-12-18T13:18:48;60.27;;;30.67;;
15921;SDS011;8060;50.948;3.146;2022-12-18T13:21:20;50.03;;;26.10;;
15921;SDS011;8060;50.948;3.146;2022-12-18T13:23:52;58.90;;;28.77;;
15921;SDS011;8060;50.948;3.146;2022-12-18T13:26:29;58.40;;;28.57;;
15921;SDS011;8060;50.948;3.146;2022-12-18T13:28:59;54.87;;;28.50;;
15921;SDS011;8060;50.948;3.146;2022-12-18T13:34:27;48.60;;;25.37;;
15921;SDS011;8060;50.948;3.146;2022-12-18T13:39:58;53.73;;;26.80;;
15921;SDS011;8060;50.948;3.146;2022-12-18T13:42:40;52.53;;;27.77;;
15921;SDS011;8060;50.948;3.146;2022-12-18T13:45:40;57.43;;;28.80;;
15921;SDS011;8060;50.948;3.146;2022-12-18T13:48:20;56.83;;;28.40;;
15921;SDS011;8060;50.948;3.146;2022-12-18T13:50:52;58.33;;;27.57;;
15921;SDS011;8060;50.948;3.146;2022-12-18T13:53:26;53.80;;;27.90;;
15921;SDS011;8060;50.948;3.146;2022-12-18T13:55:57;53.17;;;26.03;;
15921;SDS011;8060;50.948;3.146;2022-12-18T13:58:27;58.57;;;27.40;;
15921;SDS011;8060;50.948;3.146;2022-12-18T14:00:55;53.83;;;26.13;;
15921;SDS011;8060;50.948;3.146;2022-12-18T14:03:26;60.93;;;27.90;;
15921;SDS011;8060;50.948;3.146;2022-12-18T14:05:58;52.03;;;26.43;;
15921;SDS011;8060;50.948;3.146;2022-12-18T14:08:32;55.10;;;27.20;;
15921;SDS011;8060;50.948;3.146;2022-12-18T14:11:05;55.57;;;27.73;;
15921;SDS011;8060;50.948;3.146;2022-12-18T14:13:48;55.13;;;26.40;;
15921;SDS011;8060;50.948;3.146;2022-12-18T14:16:16;57.37;;;28.30;;
15921;SDS011;8060;50.948;3.146;2022-12-18T14:18:45;55.23;;;27.73;;
15921;SDS011;8060;50.948;3.146;2022-12-18T14:21:17;55.50;;;26.97;;
15921;SDS011;8060;50.948;3.146;2022-12-18T14:23:48;52.53;;;26.50;;
15921;SDS011;8060;50.948;3.146;2022-12-18T14:26:30;54.10;;;26.87;;
15921;SDS011;8060;50.948;3.146;2022-12-18T14:29:14;55.87;;;27.23;;
15921;SDS011;8060;50.948;3.146;2022-12-18T14:31:50;59.47;;;28.37;;
